Keeler Bay, Vermont
Current Conditions -  °F | °C
As of 10:53 PM on Sunday 21 Dec 2014 (Local Time) from KPBG Reporting Station
Haze Haze  
Wind Chill: 22°   Ceiling: 800
Heat Index: 22°   Visibility: 5mi
Dew Point: 19°   Wind: 0mph
Humidity: 89%   Direction: NA
Pressure: 30.39"   Gusts: NA
Location:  44.6397°N, 73.3099°W
Report Text: KPBG 220353Z AUTO 00000KT 5SM BR OVC008 M06/M07 A3039 RMK AO2 SLP297 T10561072
Loading
Personal Weather Stations






























Interactive Weather Map New forecast layout! Learn more

10-Day Weather Forecast

Advertisements
Track Severe Weather on mobile